• Join FlightAware (Why Join?)
  • Login
  • US Flag 
05:52PM EST


 

Airport Tracker/Info


-or-


 

Live Flight TrackerFlight Track Log ✈ SWA1798 ✈ 20-Apr-2013 ✈ KSNA - KDEN

Flight Track Log - Related Links

Times and Time Zones

All times are in EDT time to prevent confusion due to time zone crossing. See the SWA1798 flight status page for this flight to view local times or setup timezone preferences in your user account.

Time Position Orientation Groundspeed Altitude Reporting Facility
EDT Latitude Longitude Course Direction KTS MPH feet Rate Location/Type
05:21PM 33.6319 -117.8908 90° East 143 165 2,100  Level Los Angeles Center
05:22PM 33.5875 -117.8969 187° South 154 177 3,500 1,920 Climbing Los Angeles Center
05:23PM 33.5333 -117.8500 144° Southeast 233 268 6,200 2,580 Climbing Southern California TRACON
05:25PM 33.5625 -117.6611 79° East 296 341 11,600 2,760 Climbing Los Angeles Center
05:26PM 33.5834 -117.2391 90° East  Level FlightAware Approximate
05:26PM 33.5769 -117.5425 82° East 347 399 14,700  Level Los Angeles Center
05:27PM 33.5861 -117.4194 85° East 372 428 17,600 2,700 Climbing Los Angeles Center
05:28PM 33.5906 -117.2878 88° East 394 453 20,300 2,580 Climbing Los Angeles Center
05:29PM 33.5961 -117.1500 87° East 412 474 22,900 2,280 Climbing Los Angeles Center
05:30PM 33.6008 -117.0075 88° East 428 493 25,000 2,160 Climbing Los Angeles Center
05:31PM 33.6072 -116.8317 87° East 451 519 27,400 2,100 Climbing Los Angeles Center
05:32PM 33.6117 -116.6786 88° East 456 525 29,400 1,680 Climbing Los Angeles Center
05:33PM 33.6178 -116.5206 87° East 468 539 30,900 1,440 Climbing Los Angeles Center
05:34PM 33.6225 -116.3556 88° East 486 559 32,400 1,560 Climbing Los Angeles Center
05:35PM 33.6881 -116.2183 60° Northeast 484 557 34,100 1,560 Climbing Los Angeles Center
05:36PM 33.7681 -116.0906 53° Northeast 477 549 35,600 1,200 Climbing Los Angeles Center
05:37PM 33.8478 -115.9636 53° Northeast 477 549 36,600 1,020 Climbing Los Angeles Center
05:38PM 33.9461 -115.8064 53° Northeast 486 559 37,800 1,080 Climbing Los Angeles Center
05:39PM 34.0283 -115.6750 53° Northeast 490 564 38,900 540 Climbing Los Angeles Center
05:40PM 34.1111 -115.5431 53° Northeast 491 565 39,000  Climbing Los Angeles Center
05:41PM 34.1942 -115.4103 53° Northeast 495 570 39,000  Level Los Angeles Center
05:42PM 34.2772 -115.2764 53° Northeast 497 572 39,000  Level Los Angeles Center
05:43PM 34.3600 -115.1431 53° Northeast 496 571 39,000  Level Los Angeles Center
05:44PM 34.4569 -114.9822 54° Northeast 495 570 39,000  Level Los Angeles Center
05:45PM 34.5372 -114.8486 54° Northeast 492 566 39,000  Level Los Angeles Center
05:46PM 34.6189 -114.7161 53° Northeast 490 564 39,000  Level Los Angeles Center
05:47PM 34.7050 -114.5714 54° Northeast 496 571 39,000  Level Los Angeles Center
05:48PM 34.7833 -114.4353 55° Northeast 494 568 39,000  Level Los Angeles Center
05:49PM 34.8486 -114.2864 62° Northeast 500 575 39,000  Level Los Angeles Center
05:50PM 34.9131 -114.1375 62° Northeast 500 575 39,000  Level Los Angeles Center
05:52PM 34.9778 -113.9914 62° Northeast 493 567 39,000  Level Los Angeles Center
05:53PM 35.0475 -113.8322 62° Northeast 489 563 39,000  Level Los Angeles Center
05:54PM 35.1172 -113.6931 58° Northeast 483 556 39,000  Level Los Angeles Center
05:55PM 35.1858 -113.5528 59° Northeast 484 557 39,000  Level Los Angeles Center
05:56PM 35.2542 -113.4108 59° Northeast 487 560 39,000  Level Los Angeles Center
05:57PM 35.3317 -113.2517 59° Northeast 490 564 39,000  Level Los Angeles Center
05:58PM 35.4008 -113.1083 59° Northeast 490 564 39,000  Level Los Angeles Center
05:59PM 35.4711 -112.9644 59° Northeast 492 566 39,000  Level Los Angeles Center
06:00PM 35.5503 -112.7911 61° Northeast 487 560 39,000  Level Los Angeles Center
06:01PM 35.6178 -112.6497 60° Northeast 484 557 39,000  Level Los Angeles Center
06:02PM 35.6819 -112.5133 60° Northeast 484 557 39,000  Level Los Angeles Center
06:03PM 35.7503 -112.3697 60° Northeast 486 559 39,000  Level Los Angeles Center
06:04PM 35.8181 -112.2269 60° Northeast 486 559 39,000  Level Los Angeles Center
06:05PM 35.8847 -112.0828 60° Northeast 486 559 39,000  Level Los Angeles Center
06:06PM 35.9656 -111.9047 61° Northeast 481 554 39,000  Level Los Angeles Center
06:07PM 36.0061 -111.8206 59° Northeast 481 554 39,000  Level Denver Center
06:08PM 36.0731 -111.6761 60° Northeast 484 557 39,000  Level Denver Center
06:09PM 36.1656 -111.4747 60° Northeast 484 557 39,000  Level Denver Center
06:10PM 36.2317 -111.3294 61° Northeast 486 559 39,000  Level Denver Center
06:11PM 36.2978 -111.1847 60° Northeast 486 559 39,000  Level Denver Center
06:12PM 36.3633 -111.0392 61° Northeast 486 559 39,000  Level Denver Center
06:13PM 36.4278 -110.8944 61° Northeast 484 557 39,000  Level Denver Center
06:14PM 36.4950 -110.7492 60° Northeast 485 558 39,000  Level Denver Center
06:15PM 36.5589 -110.6047 61° Northeast 482 555 39,000  Level Denver Center
06:16PM 36.6361 -110.4319 61° Northeast 480 552 39,000  Level Denver Center
06:17PM 36.7103 -110.2597 62° Northeast 475 547 39,000  Level Denver Center
06:18PM 36.7731 -110.1175 61° Northeast 484 557 39,000  Level Denver Center
06:19PM 36.8439 -109.9522 62° Northeast 484 557 39,000  Level Denver Center
06:20PM 36.9053 -109.8119 61° Northeast 480 552 39,000  Level Denver Center
06:21PM 36.9644 -109.6731 62° Northeast 473 544 39,000  Level Denver Center
06:22PM 37.0350 -109.5114 61° Northeast 473 544 39,000  Level Denver Center
06:24PM 37.0953 -109.3728 61° Northeast 473 544 39,000  Level Denver Center
06:25PM 37.1658 -109.2089 62° Northeast 476 548 39,000  Level Denver Center
06:26PM 37.2264 -109.0661 62° Northeast 481 554 39,000  Level Denver Center
06:27PM 37.2761 -108.9478 62° Northeast 480 552 39,000  Level Denver Center
06:28PM 37.3567 -108.7589 62° Northeast 479 551 39,000  Level Denver Center
06:29PM 37.4161 -108.6153 62° Northeast 482 555 39,000  Level Denver Center
06:30PM 37.4856 -108.4481 62° Northeast 482 555 39,000  Level Denver Center
06:31PM 37.5444 -108.3067 62° Northeast 478 550 39,000  Level Denver Center
06:32PM 37.6039 -108.1622 63° Northeast 482 555 39,000  Level Denver Center
06:33PM 37.6728 -107.9975 62° Northeast 476 548 39,000  Level Denver Center
06:34PM 37.7300 -107.8533 63° Northeast 478 550 39,000  Level Denver Center
06:35PM 37.7992 -107.6881 62° Northeast 476 548 39,000  Level Denver Center
06:36PM 37.8567 -107.5439 63° Northeast 479 551 39,000  Level Denver Center
06:37PM 37.9144 -107.3992 63° Northeast 479 551 39,000  Level Denver Center
06:38PM 37.9836 -107.2308 62° Northeast 482 555 39,000 -60 Level Denver Center
06:39PM 38.0461 -107.0736 63° Northeast 479 551 38,900 -540 Descending Denver Center
06:40PM 38.1050 -106.9247 63° Northeast 479 551 37,900 -1,020 Descending Denver Center
06:41PM 38.1692 -106.7628 63° Northeast 474 545 36,900 -960 Descending Denver Center
06:42PM 38.2253 -106.6228 63° Northeast 468 539 36,000 -900 Descending Denver Center
06:43PM 38.3047 -106.5067 49° Northeast 457 526 35,000 -960 Descending Denver Center
06:44PM 38.4106 -106.3756 44° Northeast 444 511 33,900 -1,080 Descending Denver Center
06:45PM 38.5003 -106.2656 44° Northeast 446 513 32,900 -1,020 Descending Denver Center
06:46PM 38.5981 -106.1422 45° Northeast 452 520 31,900 -1,080 Descending Denver Center
06:47PM 38.6936 -106.0217 45° Northeast 448 516 30,800 -1,560 Descending Denver Center
06:48PM 38.7819 -105.9117 44° Northeast 440 506 28,800 -2,220 Descending Denver Center
06:49PM 38.8742 -105.7931 45° Northeast 421 484 26,300 -2,220 Descending Denver Center
06:50PM 38.9522 -105.6942 45° Northeast 413 475 24,300 -1,980 Descending Denver Center
06:51PM 39.0381 -105.6181 35° Northeast 393 452 22,300 -2,100 Descending Denver Center
06:52PM 39.1225 -105.5122 44° Northeast 381 438 20,000 -2,100 Descending Denver Center
06:53PM 39.1958 -105.4119 47° Northeast 379 436 18,000 -1,560 Descending Denver Center
06:54PM 39.2497 -105.3064 57° Northeast 345 397 16,900 -1,140 Descending Denver Center
06:56PM 39.2878 -105.1889 67° East 332 382 15,700 -1,380 Descending Denver Center
06:57PM 39.3431 -105.0986 52° Northeast 324 373 14,100 -1,320 Descending Denver Center
06:58PM 39.3747 -104.9914 69° East 328 377 13,000 -900 Descending Denver Center
06:59PM 39.4267 -104.9042 52° Northeast 285 328 12,300 -840 Descending Denver Center
07:00PM 39.4819 -104.8447 40° Northeast 258 297 11,400 -960 Descending Denver Center
07:01PM 39.5439 -104.7992 30° Northeast 256 295 10,400 -960 Descending Denver Center
07:02PM 39.6081 -104.7567 27° Northeast 261 300 9,500 -1,140 Descending Denver Center
07:03PM 39.6697 -104.7164 27° Northeast 232 267 8,100 -1,080 Descending Denver Center
07:04PM 39.7239 -104.6797 28° Northeast 219 252 7,400 -840 Descending Denver Center
07:05PM 39.7725 -104.6644 14° North 183 211 6,500 -840 Descending Denver Center
07:06PM 39.8181 -104.6608 North 154 177 5,700 -840 Descending Denver Center
07:08PM 39.8500 -104.6667 339° North  Level FlightAware Approximate
07:15PM 39.8617 -104.6732 339° North  Level Estimated
07:16PM 39.8617 -104.6732 339° North  Level Estimated
07:17PM 39.8617 -104.6732 339° North  Level Estimated